createdAt,value
2018-12-20T13:22:37.324Z,105.83
2018-12-20T13:25:06.600Z,109.07
2018-12-20T13:27:36.145Z,102.07
2018-12-20T13:31:43.969Z,105.77
2018-12-20T13:34:12.553Z,101.87
2018-12-20T17:35:11.152Z,127.97
2018-12-20T17:37:39.884Z,137.53
2018-12-20T17:40:08.830Z,126.33
2018-12-20T17:42:37.517Z,122.80
2018-12-20T17:45:07.775Z,131.07
2018-12-20T17:47:36.603Z,130.17
2018-12-20T17:50:07.455Z,119.07
2018-12-20T17:52:36.066Z,130.30
2018-12-20T17:55:05.629Z,125.90
2018-12-20T17:57:34.418Z,134.87
2018-12-20T18:00:03.283Z,127.63
2018-12-20T18:02:31.944Z,132.33
2018-12-20T18:05:06.920Z,131.70
2018-12-20T18:07:31.412Z,132.50
2018-12-20T18:10:01.081Z,129.73
2018-12-20T18:12:29.891Z,141.63
2018-12-20T18:14:59.764Z,123.03
2018-12-20T18:17:28.511Z,130.50
2018-12-20T18:19:57.450Z,133.20
2018-12-20T18:22:26.799Z,129.03
2018-12-20T18:24:55.777Z,129.37
2018-12-20T18:27:24.414Z,126.40
2018-12-20T18:29:53.043Z,129.57
2018-12-20T18:32:21.805Z,121.13
2018-12-20T18:34:50.520Z,134.30
2018-12-20T18:37:19.169Z,139.30
2018-12-20T18:39:47.866Z,133.63
2018-12-20T18:42:16.526Z,143.77
2018-12-20T18:44:45.150Z,143.17
2018-12-20T18:47:13.748Z,160.00
2018-12-20T18:49:47.479Z,134.33
2018-12-20T18:52:16.255Z,133.20
2018-12-20T18:54:44.957Z,146.73
2018-12-20T18:57:13.646Z,147.10
2018-12-20T18:59:42.724Z,145.23
2018-12-20T19:02:11.567Z,148.87
2018-12-20T19:04:40.343Z,135.90
2018-12-20T19:07:08.930Z,146.23
2018-12-20T19:09:37.593Z,142.97
2018-12-20T19:12:06.431Z,159.10
2018-12-20T19:14:36.256Z,151.90
2018-12-20T19:17:05.175Z,149.87
2018-12-20T19:19:33.829Z,144.97
2018-12-20T19:22:02.598Z,154.40
2018-12-20T19:24:31.413Z,174.87
2018-12-20T19:27:00.178Z,170.03
2018-12-20T19:29:28.813Z,161.70
2018-12-20T19:31:57.995Z,152.47
2018-12-20T19:34:26.868Z,153.50
2018-12-20T19:36:55.558Z,155.00
2018-12-20T19:39:25.864Z,157.17
2018-12-20T19:41:56.757Z,159.33
2018-12-20T19:44:25.551Z,169.63
2018-12-20T19:46:54.807Z,180.30
2018-12-20T19:49:23.416Z,180.93
2018-12-20T19:51:52.158Z,182.10
2018-12-20T19:54:20.883Z,184.73
2018-12-20T19:56:49.483Z,194.10
2018-12-20T19:59:18.139Z,181.07
2018-12-20T20:01:46.773Z,169.23
2018-12-20T20:04:15.382Z,160.70
2018-12-20T20:06:44.022Z,165.40
2018-12-20T20:09:12.641Z,161.77
2018-12-20T20:11:41.282Z,155.57
2018-12-20T20:14:09.945Z,165.43
2018-12-20T20:16:38.564Z,157.40
2018-12-20T20:19:07.219Z,155.60
2018-12-20T20:21:36.625Z,143.50
2018-12-20T20:24:06.044Z,164.27
2018-12-20T20:26:34.721Z,144.43
2018-12-20T20:29:03.788Z,142.90
2018-12-20T20:31:32.491Z,131.50
2018-12-20T20:34:48.804Z,117.57
2018-12-20T20:37:17.459Z,121.00
2018-12-20T20:42:44.851Z,130.63
2018-12-20T20:45:13.581Z,162.67
2018-12-20T20:47:42.286Z,148.73
2018-12-20T20:50:10.927Z,135.90
2018-12-20T20:52:39.566Z,134.90
2018-12-20T20:55:09.220Z,143.37
2018-12-20T20:57:37.858Z,162.93
2018-12-20T21:00:12.903Z,210.40
2018-12-20T21:02:41.845Z,157.70
2018-12-20T21:05:11.154Z,154.93
2018-12-20T21:07:39.874Z,140.67
2018-12-20T21:10:10.341Z,157.73
2018-12-20T21:12:39.048Z,161.00
2018-12-20T21:15:11.524Z,149.53
2018-12-20T21:17:40.330Z,145.50
2018-12-20T21:20:12.940Z,149.80
2018-12-20T21:22:43.523Z,160.30
2018-12-20T21:25:12.504Z,164.37
2018-12-20T21:27:41.323Z,159.23
2018-12-20T21:30:11.491Z,158.50
2018-12-20T21:32:40.235Z,130.43
2018-12-20T21:35:09.441Z,135.57
2018-12-20T21:37:38.127Z,128.87
2018-12-20T21:40:07.897Z,126.93
2018-12-20T21:42:46.657Z,118.27
2018-12-20T21:45:15.249Z,129.57
2018-12-20T21:47:43.948Z,116.10
2018-12-20T21:50:13.663Z,112.93
2018-12-20T21:52:43.360Z,149.53
2018-12-20T21:55:12.160Z,111.93
2018-12-20T21:57:40.811Z,100.27
2018-12-20T22:00:11.432Z,120.87
2018-12-20T22:02:40.146Z,119.17
2018-12-20T22:05:08.880Z,120.40
2018-12-20T22:07:37.482Z,151.13
2018-12-20T22:10:07.407Z,141.83
2018-12-20T22:12:39.267Z,129.50
2018-12-20T22:15:08.200Z,128.20
2018-12-20T22:17:36.774Z,146.90
2018-12-20T22:20:06.863Z,144.17
2018-12-20T22:22:35.583Z,186.23
2018-12-20T22:25:04.586Z,175.77
2018-12-20T22:27:33.137Z,141.00
2018-12-20T22:30:01.901Z,140.10
2018-12-20T22:32:30.533Z,129.47
2018-12-20T22:34:59.212Z,130.23
2018-12-20T22:37:27.888Z,121.37
2018-12-20T22:39:56.586Z,151.30
2018-12-20T22:42:25.181Z,138.10
2018-12-20T22:44:53.841Z,130.70
2018-12-20T22:47:22.471Z,131.10
2018-12-20T22:49:51.066Z,135.57
2018-12-20T22:52:19.691Z,139.40
2018-12-20T22:54:48.280Z,109.53
2018-12-20T22:57:16.951Z,137.87
2018-12-20T22:59:45.628Z,136.33
2018-12-20T23:02:18.014Z,130.13
2018-12-20T23:04:44.954Z,118.80
2018-12-20T23:07:14.343Z,123.83
2018-12-20T23:09:42.912Z,133.43
2018-12-20T23:12:11.534Z,123.90
2018-12-20T23:14:40.122Z,146.97
2018-12-20T23:17:08.746Z,114.03
2018-12-20T23:19:37.451Z,124.67
2018-12-20T23:22:06.056Z,120.90
2018-12-20T23:24:34.820Z,139.20
2018-12-20T23:27:03.444Z,126.03
2018-12-20T23:29:32.142Z,131.67
2018-12-20T23:32:00.897Z,159.07
2018-12-20T23:34:29.531Z,132.83
2018-12-20T23:36:58.263Z,127.43
2018-12-20T23:39:26.935Z,117.13
2018-12-20T23:41:55.563Z,116.57
2018-12-20T23:44:24.174Z,111.73
2018-12-20T23:46:52.810Z,99.70
2018-12-20T23:49:21.434Z,109.90
2018-12-20T23:51:50.038Z,111.67
2018-12-20T23:54:18.881Z,101.07
2018-12-20T23:56:47.505Z,107.43
